sensor_id;sensor_type;location;lat;lon;timestamp;P1;durP1;ratioP1;P2;durP2;ratioP2
11731;SDS011;5922;53.734;10.258;2023-06-10T00:00:35;5.90;;;3.60;;
11731;SDS011;5922;53.734;10.258;2023-06-10T00:03:24;6.63;;;3.97;;
11731;SDS011;5922;53.734;10.258;2023-06-10T00:06:06;8.73;;;3.87;;
11731;SDS011;5922;53.734;10.258;2023-06-10T00:09:00;8.37;;;3.60;;
11731;SDS011;5922;53.734;10.258;2023-06-10T00:11:43;5.57;;;3.60;;
11731;SDS011;5922;53.734;10.258;2023-06-10T00:14:46;5.13;;;2.97;;
11731;SDS011;5922;53.734;10.258;2023-06-10T00:17:28;11.03;;;3.60;;
11731;SDS011;5922;53.734;10.258;2023-06-10T00:20:20;4.77;;;3.50;;
11731;SDS011;5922;53.734;10.258;2023-06-10T00:22:50;7.13;;;3.70;;
11731;SDS011;5922;53.734;10.258;2023-06-10T00:25:37;6.90;;;3.50;;
11731;SDS011;5922;53.734;10.258;2023-06-10T00:28:20;6.40;;;3.77;;
11731;SDS011;5922;53.734;10.258;2023-06-10T00:30:57;7.87;;;3.67;;
11731;SDS011;5922;53.734;10.258;2023-06-10T00:33:44;5.70;;;3.60;;
11731;SDS011;5922;53.734;10.258;2023-06-10T00:36:20;5.73;;;3.60;;
11731;SDS011;5922;53.734;10.258;2023-06-10T00:38:55;7.20;;;3.97;;
11731;SDS011;5922;53.734;10.258;2023-06-10T00:41:31;6.13;;;3.60;;
11731;SDS011;5922;53.734;10.258;2023-06-10T00:43:59;7.47;;;3.43;;
11731;SDS011;5922;53.734;10.258;2023-06-10T00:46:40;7.37;;;3.77;;
11731;SDS011;5922;53.734;10.258;2023-06-10T00:49:12;4.67;;;3.30;;
11731;SDS011;5922;53.734;10.258;2023-06-10T00:51:50;6.43;;;3.70;;
11731;SDS011;5922;53.734;10.258;2023-06-10T00:54:36;9.17;;;3.50;;
11731;SDS011;5922;53.734;10.258;2023-06-10T00:57:07;7.60;;;3.73;;
11731;SDS011;5922;53.734;10.258;2023-06-10T00:59:35;5.97;;;3.40;;
11731;SDS011;5922;53.734;10.258;2023-06-10T01:02:15;8.57;;;3.43;;
11731;SDS011;5922;53.734;10.258;2023-06-10T01:04:42;5.93;;;3.57;;
11731;SDS011;5922;53.734;10.258;2023-06-10T01:07:11;7.70;;;3.40;;
11731;SDS011;5922;53.734;10.258;2023-06-10T01:09:48;6.53;;;3.07;;
11731;SDS011;5922;53.734;10.258;2023-06-10T01:12:19;5.30;;;3.00;;
11731;SDS011;5922;53.734;10.258;2023-06-10T01:14:47;8.67;;;3.30;;
11731;SDS011;5922;53.734;10.258;2023-06-10T01:17:17;7.03;;;2.90;;
11731;SDS011;5922;53.734;10.258;2023-06-10T01:19:49;6.07;;;2.90;;
11731;SDS011;5922;53.734;10.258;2023-06-10T01:22:22;6.30;;;3.00;;
11731;SDS011;5922;53.734;10.258;2023-06-10T01:24:54;9.97;;;3.20;;
11731;SDS011;5922;53.734;10.258;2023-06-10T01:27:36;5.83;;;2.47;;
11731;SDS011;5922;53.734;10.258;2023-06-10T01:30:26;6.10;;;2.93;;
11731;SDS011;5922;53.734;10.258;2023-06-10T01:33:25;6.87;;;2.97;;
11731;SDS011;5922;53.734;10.258;2023-06-10T01:35:58;9.77;;;3.30;;
11731;SDS011;5922;53.734;10.258;2023-06-10T01:38:27;4.07;;;2.83;;
11731;SDS011;5922;53.734;10.258;2023-06-10T01:40:59;6.73;;;3.07;;
11731;SDS011;5922;53.734;10.258;2023-06-10T01:43:37;8.70;;;2.90;;
11731;SDS011;5922;53.734;10.258;2023-06-10T01:46:12;7.23;;;3.07;;
11731;SDS011;5922;53.734;10.258;2023-06-10T01:48:47;7.13;;;2.90;;
11731;SDS011;5922;53.734;10.258;2023-06-10T01:51:22;8.03;;;3.27;;
11731;SDS011;5922;53.734;10.258;2023-06-10T01:54:12;5.27;;;3.00;;
11731;SDS011;5922;53.734;10.258;2023-06-10T01:57:14;4.77;;;2.97;;
11731;SDS011;5922;53.734;10.258;2023-06-10T01:59:58;5.37;;;3.10;;
11731;SDS011;5922;53.734;10.258;2023-06-10T02:02:40;7.17;;;3.10;;
11731;SDS011;5922;53.734;10.258;2023-06-10T02:05:25;6.70;;;2.97;;
11731;SDS011;5922;53.734;10.258;2023-06-10T02:08:04;7.57;;;2.93;;
11731;SDS011;5922;53.734;10.258;2023-06-10T02:10:47;8.87;;;3.00;;
11731;SDS011;5922;53.734;10.258;2023-06-10T02:16:28;6.07;;;3.40;;
11731;SDS011;5922;53.734;10.258;2023-06-10T02:19:24;6.43;;;3.43;;
11731;SDS011;5922;53.734;10.258;2023-06-10T02:22:22;6.33;;;3.30;;
11731;SDS011;5922;53.734;10.258;2023-06-10T02:25:14;7.13;;;3.40;;
11731;SDS011;5922;53.734;10.258;2023-06-10T02:28:07;6.87;;;2.83;;
11731;SDS011;5922;53.734;10.258;2023-06-10T02:30:39;5.43;;;3.00;;
11731;SDS011;5922;53.734;10.258;2023-06-10T02:33:13;6.80;;;2.90;;
11731;SDS011;5922;53.734;10.258;2023-06-10T02:35:42;5.87;;;3.53;;
11731;SDS011;5922;53.734;10.258;2023-06-10T02:38:21;7.20;;;3.17;;
11731;SDS011;5922;53.734;10.258;2023-06-10T02:41:12;5.30;;;3.20;;
11731;SDS011;5922;53.734;10.258;2023-06-10T02:43:48;6.10;;;3.07;;
11731;SDS011;5922;53.734;10.258;2023-06-10T02:46:15;5.60;;;3.50;;
11731;SDS011;5922;53.734;10.258;2023-06-10T02:48:48;8.13;;;3.87;;
11731;SDS011;5922;53.734;10.258;2023-06-10T02:51:24;8.80;;;3.77;;
11731;SDS011;5922;53.734;10.258;2023-06-10T02:53:57;6.57;;;3.00;;
11731;SDS011;5922;53.734;10.258;2023-06-10T02:56:27;7.50;;;3.57;;
11731;SDS011;5922;53.734;10.258;2023-06-10T02:59:19;7.53;;;3.50;;
11731;SDS011;5922;53.734;10.258;2023-06-10T03:01:55;7.17;;;3.40;;
11731;SDS011;5922;53.734;10.258;2023-06-10T03:04:44;7.30;;;3.37;;
11731;SDS011;5922;53.734;10.258;2023-06-10T03:07:18;6.27;;;3.60;;
11731;SDS011;5922;53.734;10.258;2023-06-10T03:09:49;6.27;;;3.30;;
11731;SDS011;5922;53.734;10.258;2023-06-10T03:12:22;5.43;;;3.20;;
11731;SDS011;5922;53.734;10.258;2023-06-10T03:14:57;5.43;;;3.20;;
11731;SDS011;5922;53.734;10.258;2023-06-10T03:17:27;10.40;;;3.30;;
11731;SDS011;5922;53.734;10.258;2023-06-10T03:20:04;6.97;;;2.97;;
11731;SDS011;5922;53.734;10.258;2023-06-10T03:22:47;4.80;;;2.90;;
11731;SDS011;5922;53.734;10.258;2023-06-10T03:25:21;7.47;;;3.30;;
11731;SDS011;5922;53.734;10.258;2023-06-10T03:28:01;4.73;;;2.53;;
11731;SDS011;5922;53.734;10.258;2023-06-10T03:30:36;7.07;;;2.50;;
11731;SDS011;5922;53.734;10.258;2023-06-10T03:33:14;7.80;;;2.97;;
11731;SDS011;5922;53.734;10.258;2023-06-10T03:35:50;6.77;;;3.13;;
11731;SDS011;5922;53.734;10.258;2023-06-10T03:38:24;6.57;;;3.33;;
11731;SDS011;5922;53.734;10.258;2023-06-10T03:41:02;9.70;;;3.10;;
11731;SDS011;5922;53.734;10.258;2023-06-10T03:43:34;4.77;;;3.10;;
11731;SDS011;5922;53.734;10.258;2023-06-10T03:46:08;6.17;;;3.20;;
11731;SDS011;5922;53.734;10.258;2023-06-10T03:48:43;7.57;;;3.10;;
11731;SDS011;5922;53.734;10.258;2023-06-10T03:51:16;7.20;;;2.97;;
11731;SDS011;5922;53.734;10.258;2023-06-10T03:53:54;5.17;;;3.00;;
11731;SDS011;5922;53.734;10.258;2023-06-10T03:56:35;8.77;;;3.30;;
11731;SDS011;5922;53.734;10.258;2023-06-10T03:59:14;5.97;;;3.03;;
11731;SDS011;5922;53.734;10.258;2023-06-10T04:01:58;8.50;;;3.23;;
11731;SDS011;5922;53.734;10.258;2023-06-10T04:04:33;7.37;;;3.10;;
11731;SDS011;5922;53.734;10.258;2023-06-10T04:07:23;5.90;;;2.97;;
11731;SDS011;5922;53.734;10.258;2023-06-10T04:10:10;9.87;;;3.23;;
11731;SDS011;5922;53.734;10.258;2023-06-10T04:12:40;8.00;;;3.33;;
11731;SDS011;5922;53.734;10.258;2023-06-10T04:15:30;11.57;;;3.70;;
11731;SDS011;5922;53.734;10.258;2023-06-10T04:18:08;9.80;;;3.20;;
11731;SDS011;5922;53.734;10.258;2023-06-10T04:20:46;10.03;;;2.90;;
11731;SDS011;5922;53.734;10.258;2023-06-10T04:23:29;6.57;;;3.27;;
11731;SDS011;5922;53.734;10.258;2023-06-10T04:28:45;7.43;;;3.20;;
11731;SDS011;5922;53.734;10.258;2023-06-10T04:31:26;6.50;;;2.90;;
11731;SDS011;5922;53.734;10.258;2023-06-10T04:34:08;6.37;;;3.07;;
11731;SDS011;5922;53.734;10.258;2023-06-10T04:36:42;6.77;;;3.17;;
11731;SDS011;5922;53.734;10.258;2023-06-10T04:39:17;5.83;;;2.87;;
11731;SDS011;5922;53.734;10.258;2023-06-10T04:41:59;10.70;;;3.03;;
11731;SDS011;5922;53.734;10.258;2023-06-10T04:47:19;9.23;;;3.10;;
11731;SDS011;5922;53.734;10.258;2023-06-10T04:49:59;5.93;;;2.70;;
11731;SDS011;5922;53.734;10.258;2023-06-10T04:52:33;6.27;;;2.70;;
11731;SDS011;5922;53.734;10.258;2023-06-10T04:55:06;11.10;;;3.10;;
11731;SDS011;5922;53.734;10.258;2023-06-10T04:57:50;7.03;;;3.20;;
11731;SDS011;5922;53.734;10.258;2023-06-10T05:00:20;9.77;;;2.90;;
11731;SDS011;5922;53.734;10.258;2023-06-10T05:02:56;8.53;;;2.90;;
11731;SDS011;5922;53.734;10.258;2023-06-10T05:05:44;6.53;;;2.63;;
11731;SDS011;5922;53.734;10.258;2023-06-10T05:08:17;10.77;;;2.90;;
11731;SDS011;5922;53.734;10.258;2023-06-10T05:10:49;8.33;;;2.70;;
11731;SDS011;5922;53.734;10.258;2023-06-10T05:13:22;4.93;;;2.57;;
11731;SDS011;5922;53.734;10.258;2023-06-10T05:16:00;9.67;;;2.60;;
11731;SDS011;5922;53.734;10.258;2023-06-10T05:18:36;8.27;;;2.53;;
11731;SDS011;5922;53.734;10.258;2023-06-10T05:21:10;6.77;;;2.30;;
11731;SDS011;5922;53.734;10.258;2023-06-10T05:23:43;6.40;;;2.60;;
11731;SDS011;5922;53.734;10.258;2023-06-10T05:26:10;8.40;;;2.73;;
11731;SDS011;5922;53.734;10.258;2023-06-10T05:28:37;11.30;;;3.03;;
11731;SDS011;5922;53.734;10.258;2023-06-10T05:31:07;8.53;;;2.60;;
11731;SDS011;5922;53.734;10.258;2023-06-10T05:33:37;7.30;;;2.60;;
11731;SDS011;5922;53.734;10.258;2023-06-10T05:36:05;6.60;;;3.17;;
11731;SDS011;5922;53.734;10.258;2023-06-10T05:38:33;7.70;;;2.47;;
11731;SDS011;5922;53.734;10.258;2023-06-10T05:41:01;8.80;;;2.27;;
11731;SDS011;5922;53.734;10.258;2023-06-10T05:43:31;5.90;;;2.10;;
11731;SDS011;5922;53.734;10.258;2023-06-10T05:45:58;5.90;;;2.23;;
11731;SDS011;5922;53.734;10.258;2023-06-10T05:48:25;5.43;;;2.20;;
11731;SDS011;5922;53.734;10.258;2023-06-10T05:50:52;5.87;;;2.23;;
11731;SDS011;5922;53.734;10.258;2023-06-10T05:53:26;9.17;;;2.50;;
11731;SDS011;5922;53.734;10.258;2023-06-10T05:55:55;7.23;;;2.30;;
11731;SDS011;5922;53.734;10.258;2023-06-10T05:58:23;6.20;;;2.50;;
11731;SDS011;5922;53.734;10.258;2023-06-10T06:00:51;6.23;;;2.30;;
11731;SDS011;5922;53.734;10.258;2023-06-10T06:03:18;9.00;;;2.50;;
11731;SDS011;5922;53.734;10.258;2023-06-10T06:05:45;5.40;;;2.60;;
11731;SDS011;5922;53.734;10.258;2023-06-10T06:08:12;8.13;;;2.80;;
11731;SDS011;5922;53.734;10.258;2023-06-10T06:10:42;6.70;;;2.70;;
11731;SDS011;5922;53.734;10.258;2023-06-10T06:13:11;9.13;;;2.90;;
11731;SDS011;5922;53.734;10.258;2023-06-10T06:15:38;6.93;;;2.63;;
11731;SDS011;5922;53.734;10.258;2023-06-10T06:18:05;6.97;;;2.20;;
11731;SDS011;5922;53.734;10.258;2023-06-10T06:20:33;8.13;;;2.63;;
11731;SDS011;5922;53.734;10.258;2023-06-10T06:23:00;7.13;;;2.87;;
11731;SDS011;5922;53.734;10.258;2023-06-10T06:25:27;6.13;;;2.47;;
11731;SDS011;5922;53.734;10.258;2023-06-10T06:27:55;7.37;;;2.33;;
11731;SDS011;5922;53.734;10.258;2023-06-10T06:30:23;6.00;;;2.60;;
11731;SDS011;5922;53.734;10.258;2023-06-10T06:32:51;7.97;;;2.30;;
11731;SDS011;5922;53.734;10.258;2023-06-10T06:35:18;6.70;;;2.67;;
11731;SDS011;5922;53.734;10.258;2023-06-10T06:37:45;4.47;;;2.43;;
11731;SDS011;5922;53.734;10.258;2023-06-10T06:40:13;5.17;;;2.67;;
11731;SDS011;5922;53.734;10.258;2023-06-10T06:42:40;6.67;;;2.70;;
11731;SDS011;5922;53.734;10.258;2023-06-10T06:45:07;7.33;;;2.50;;
11731;SDS011;5922;53.734;10.258;2023-06-10T06:47:36;6.63;;;2.80;;
11731;SDS011;5922;53.734;10.258;2023-06-10T06:50:03;8.83;;;3.10;;
11731;SDS011;5922;53.734;10.258;2023-06-10T06:52:31;6.40;;;2.60;;
11731;SDS011;5922;53.734;10.258;2023-06-10T06:54:58;7.07;;;2.63;;
11731;SDS011;5922;53.734;10.258;2023-06-10T06:57:26;6.70;;;2.77;;
11731;SDS011;5922;53.734;10.258;2023-06-10T06:59:56;6.40;;;3.07;;
11731;SDS011;5922;53.734;10.258;2023-06-10T07:02:24;9.37;;;3.17;;
11731;SDS011;5922;53.734;10.258;2023-06-10T07:04:52;7.90;;;2.90;;
11731;SDS011;5922;53.734;10.258;2023-06-10T07:07:21;6.05;;;2.95;;
11731;SDS011;5922;53.734;10.258;2023-06-10T07:09:48;11.18;;;2.80;;
11731;SDS011;5922;53.734;10.258;2023-06-10T07:12:21;8.10;;;2.88;;
11731;SDS011;5922;53.734;10.258;2023-06-10T07:14:52;7.63;;;2.92;;
11731;SDS011;5922;53.734;10.258;2023-06-10T07:17:19;4.75;;;2.40;;
11731;SDS011;5922;53.734;10.258;2023-06-10T07:19:46;6.00;;;2.67;;
11731;SDS011;5922;53.734;10.258;2023-06-10T07:22:18;5.90;;;2.72;;
11731;SDS011;5922;53.734;10.258;2023-06-10T07:24:45;5.82;;;2.53;;
11731;SDS011;5922;53.734;10.258;2023-06-10T07:27:26;6.95;;;2.65;;
11731;SDS011;5922;53.734;10.258;2023-06-10T07:29:54;8.98;;;3.22;;
11731;SDS011;5922;53.734;10.258;2023-06-10T07:32:22;5.95;;;2.53;;
11731;SDS011;5922;53.734;10.258;2023-06-10T07:34:51;7.15;;;3.03;;
11731;SDS011;5922;53.734;10.258;2023-06-10T07:37:22;7.07;;;3.05;;
11731;SDS011;5922;53.734;10.258;2023-06-10T07:39:51;9.23;;;2.95;;
11731;SDS011;5922;53.734;10.258;2023-06-10T07:42:26;6.60;;;2.65;;
11731;SDS011;5922;53.734;10.258;2023-06-10T07:45:08;7.10;;;2.88;;
11731;SDS011;5922;53.734;10.258;2023-06-10T07:47:35;7.78;;;2.90;;
11731;SDS011;5922;53.734;10.258;2023-06-10T07:50:02;7.47;;;3.00;;
11731;SDS011;5922;53.734;10.258;2023-06-10T07:52:35;6.80;;;2.90;;
11731;SDS011;5922;53.734;10.258;2023-06-10T07:55:06;4.65;;;2.72;;
11731;SDS011;5922;53.734;10.258;2023-06-10T07:57:34;7.50;;;2.92;;
11731;SDS011;5922;53.734;10.258;2023-06-10T08:00:04;6.53;;;3.22;;
11731;SDS011;5922;53.734;10.258;2023-06-10T08:02:32;5.18;;;2.95;;
11731;SDS011;5922;53.734;10.258;2023-06-10T08:05:01;8.70;;;3.42;;
11731;SDS011;5922;53.734;10.258;2023-06-10T08:07:44;8.95;;;3.10;;
11731;SDS011;5922;53.734;10.258;2023-06-10T08:10:16;7.60;;;2.63;;
11731;SDS011;5922;53.734;10.258;2023-06-10T08:12:56;7.00;;;3.00;;
11731;SDS011;5922;53.734;10.258;2023-06-10T08:15:30;7.07;;;2.70;;
11731;SDS011;5922;53.734;10.258;2023-06-10T08:17:58;6.80;;;2.47;;
11731;SDS011;5922;53.734;10.258;2023-06-10T08:20:27;5.80;;;2.90;;
11731;SDS011;5922;53.734;10.258;2023-06-10T08:23:10;9.13;;;3.30;;
11731;SDS011;5922;53.734;10.258;2023-06-10T08:25:45;7.23;;;3.23;;
11731;SDS011;5922;53.734;10.258;2023-06-10T08:28:19;6.70;;;3.27;;
11731;SDS011;5922;53.734;10.258;2023-06-10T08:30:53;9.17;;;3.43;;
11731;SDS011;5922;53.734;10.258;2023-06-10T08:33:27;5.57;;;2.87;;
11731;SDS011;5922;53.734;10.258;2023-06-10T08:35:55;9.83;;;3.47;;
11731;SDS011;5922;53.734;10.258;2023-06-10T08:41:12;7.73;;;3.63;;
11731;SDS011;5922;53.734;10.258;2023-06-10T08:43:52;8.80;;;3.33;;
11731;SDS011;5922;53.734;10.258;2023-06-10T08:47:49;8.13;;;3.33;;
11731;SDS011;5922;53.734;10.258;2023-06-10T08:49:58;10.70;;;3.50;;
11731;SDS011;5922;53.734;10.258;2023-06-10T08:52:34;7.83;;;3.10;;
11731;SDS011;5922;53.734;10.258;2023-06-10T08:58:21;8.80;;;3.77;;
11731;SDS011;5922;53.734;10.258;2023-06-10T09:01:09;8.77;;;3.40;;
11731;SDS011;5922;53.734;10.258;2023-06-10T09:03:43;7.77;;;3.07;;
11731;SDS011;5922;53.734;10.258;2023-06-10T09:06:19;10.10;;;3.63;;
11731;SDS011;5922;53.734;10.258;2023-06-10T09:09:12;8.30;;;3.60;;
11731;SDS011;5922;53.734;10.258;2023-06-10T09:11:51;7.97;;;2.90;;
11731;SDS011;5922;53.734;10.258;2023-06-10T09:14:31;11.33;;;3.77;;
11731;SDS011;5922;53.734;10.258;2023-06-10T09:19:45;7.50;;;3.13;;
11731;SDS011;5922;53.734;10.258;2023-06-10T09:25:20;8.17;;;3.40;;
11731;SDS011;5922;53.734;10.258;2023-06-10T09:28:06;9.13;;;4.00;;
11731;SDS011;5922;53.734;10.258;2023-06-10T09:30:50;8.40;;;3.50;;
11731;SDS011;5922;53.734;10.258;2023-06-10T09:33:28;8.43;;;3.60;;
11731;SDS011;5922;53.734;10.258;2023-06-10T09:35:55;7.20;;;3.40;;
11731;SDS011;5922;53.734;10.258;2023-06-10T09:38:31;6.13;;;3.43;;
11731;SDS011;5922;53.734;10.258;2023-06-10T09:41:00;11.10;;;3.40;;
11731;SDS011;5922;53.734;10.258;2023-06-10T09:43:40;7.47;;;3.70;;
11731;SDS011;5922;53.734;10.258;2023-06-10T09:46:14;10.37;;;3.70;;
11731;SDS011;5922;53.734;10.258;2023-06-10T09:48:48;7.07;;;3.47;;
11731;SDS011;5922;53.734;10.258;2023-06-10T09:51:15;9.60;;;3.67;;
11731;SDS011;5922;53.734;10.258;2023-06-10T09:53:49;10.47;;;3.47;;
11731;SDS011;5922;53.734;10.258;2023-06-10T09:56:18;6.30;;;3.37;;
11731;SDS011;5922;53.734;10.258;2023-06-10T09:58:45;8.07;;;3.80;;
11731;SDS011;5922;53.734;10.258;2023-06-10T10:01:15;6.53;;;3.70;;
11731;SDS011;5922;53.734;10.258;2023-06-10T10:03:43;5.03;;;3.30;;
11731;SDS011;5922;53.734;10.258;2023-06-10T10:06:11;11.83;;;3.57;;
11731;SDS011;5922;53.734;10.258;2023-06-10T10:08:39;10.57;;;3.50;;
11731;SDS011;5922;53.734;10.258;2023-06-10T10:11:08;12.17;;;3.63;;
11731;SDS011;5922;53.734;10.258;2023-06-10T10:13:35;9.70;;;3.73;;
11731;SDS011;5922;53.734;10.258;2023-06-10T10:16:04;11.10;;;3.57;;
11731;SDS011;5922;53.734;10.258;2023-06-10T10:18:31;8.73;;;3.53;;
11731;SDS011;5922;53.734;10.258;2023-06-10T10:21:00;9.63;;;3.40;;
11731;SDS011;5922;53.734;10.258;2023-06-10T10:23:35;11.33;;;3.80;;
11731;SDS011;5922;53.734;10.258;2023-06-10T10:26:06;6.43;;;3.60;;
11731;SDS011;5922;53.734;10.258;2023-06-10T10:28:45;8.80;;;3.27;;
11731;SDS011;5922;53.734;10.258;2023-06-10T10:31:34;9.33;;;3.43;;
11731;SDS011;5922;53.734;10.258;2023-06-10T10:34:12;9.33;;;3.83;;
11731;SDS011;5922;53.734;10.258;2023-06-10T10:36:52;8.83;;;3.80;;
11731;SDS011;5922;53.734;10.258;2023-06-10T10:39:19;8.73;;;3.47;;
11731;SDS011;5922;53.734;10.258;2023-06-10T10:41:49;11.50;;;4.30;;
11731;SDS011;5922;53.734;10.258;2023-06-10T10:44:32;8.63;;;3.80;;
11731;SDS011;5922;53.734;10.258;2023-06-10T10:47:09;7.67;;;3.13;;
11731;SDS011;5922;53.734;10.258;2023-06-10T10:49:37;7.67;;;3.57;;
11731;SDS011;5922;53.734;10.258;2023-06-10T10:52:10;9.67;;;4.07;;
11731;SDS011;5922;53.734;10.258;2023-06-10T10:54:45;7.27;;;3.40;;
11731;SDS011;5922;53.734;10.258;2023-06-10T10:57:13;11.70;;;4.00;;
11731;SDS011;5922;53.734;10.258;2023-06-10T10:59:55;9.97;;;4.03;;
11731;SDS011;5922;53.734;10.258;2023-06-10T11:05:42;11.00;;;3.83;;
11731;SDS011;5922;53.734;10.258;2023-06-10T11:08:13;9.97;;;4.10;;
11731;SDS011;5922;53.734;10.258;2023-06-10T11:10:41;6.27;;;3.67;;
11731;SDS011;5922;53.734;10.258;2023-06-10T11:13:12;6.03;;;3.47;;
11731;SDS011;5922;53.734;10.258;2023-06-10T11:15:44;6.40;;;3.30;;
11731;SDS011;5922;53.734;10.258;2023-06-10T11:18:13;7.13;;;3.37;;
11731;SDS011;5922;53.734;10.258;2023-06-10T11:23:32;7.07;;;3.63;;
11731;SDS011;5922;53.734;10.258;2023-06-10T11:29:20;8.00;;;3.20;;
11731;SDS011;5922;53.734;10.258;2023-06-10T11:37:29;7.47;;;3.77;;
11731;SDS011;5922;53.734;10.258;2023-06-10T11:39:57;7.57;;;3.60;;
11731;SDS011;5922;53.734;10.258;2023-06-10T11:42:40;6.70;;;3.73;;
11731;SDS011;5922;53.734;10.258;2023-06-10T11:45:08;15.40;;;4.20;;
11731;SDS011;5922;53.734;10.258;2023-06-10T11:47:38;12.67;;;3.90;;
11731;SDS011;5922;53.734;10.258;2023-06-10T11:50:11;9.97;;;4.03;;
11731;SDS011;5922;53.734;10.258;2023-06-10T11:53:05;8.33;;;3.67;;
11731;SDS011;5922;53.734;10.258;2023-06-10T11:55:42;5.87;;;3.13;;
11731;SDS011;5922;53.734;10.258;2023-06-10T11:59:47;9.30;;;3.83;;
11731;SDS011;5922;53.734;10.258;2023-06-10T12:04:26;7.87;;;3.43;;
11731;SDS011;5922;53.734;10.258;2023-06-10T12:16:05;6.87;;;3.80;;
11731;SDS011;5922;53.734;10.258;2023-06-10T12:18:49;9.20;;;3.80;;
11731;SDS011;5922;53.734;10.258;2023-06-10T12:21:17;11.30;;;3.63;;
11731;SDS011;5922;53.734;10.258;2023-06-10T12:24:03;8.57;;;3.03;;
11731;SDS011;5922;53.734;10.258;2023-06-10T12:26:38;7.93;;;3.73;;
11731;SDS011;5922;53.734;10.258;2023-06-10T12:29:12;9.20;;;3.67;;
11731;SDS011;5922;53.734;10.258;2023-06-10T12:31:54;11.37;;;3.70;;
11731;SDS011;5922;53.734;10.258;2023-06-10T12:34:27;11.30;;;3.43;;
11731;SDS011;5922;53.734;10.258;2023-06-10T12:36:55;7.60;;;3.50;;
11731;SDS011;5922;53.734;10.258;2023-06-10T12:39:22;8.10;;;3.03;;
11731;SDS011;5922;53.734;10.258;2023-06-10T12:41:50;11.53;;;4.00;;
11731;SDS011;5922;53.734;10.258;2023-06-10T12:47:30;7.80;;;3.53;;
11731;SDS011;5922;53.734;10.258;2023-06-10T12:50:02;13.60;;;3.67;;
11731;SDS011;5922;53.734;10.258;2023-06-10T12:52:29;11.50;;;3.50;;
11731;SDS011;5922;53.734;10.258;2023-06-10T12:54:57;11.43;;;3.70;;
11731;SDS011;5922;53.734;10.258;2023-06-10T12:57:25;8.10;;;3.27;;
11731;SDS011;5922;53.734;10.258;2023-06-10T12:59:53;11.30;;;3.30;;
11731;SDS011;5922;53.734;10.258;2023-06-10T13:02:30;7.80;;;2.93;;
11731;SDS011;5922;53.734;10.258;2023-06-10T13:04:58;10.20;;;3.57;;
11731;SDS011;5922;53.734;10.258;2023-06-10T13:07:25;9.37;;;3.80;;
11731;SDS011;5922;53.734;10.258;2023-06-10T13:09:52;9.10;;;3.50;;
11731;SDS011;5922;53.734;10.258;2023-06-10T13:12:20;7.93;;;3.57;;
11731;SDS011;5922;53.734;10.258;2023-06-10T13:14:47;11.97;;;3.47;;
11731;SDS011;5922;53.734;10.258;2023-06-10T13:17:14;7.17;;;3.80;;
11731;SDS011;5922;53.734;10.258;2023-06-10T13:19:43;13.33;;;3.23;;
11731;SDS011;5922;53.734;10.258;2023-06-10T13:22:11;7.90;;;4.07;;
11731;SDS011;5922;53.734;10.258;2023-06-10T13:24:38;8.67;;;3.50;;
11731;SDS011;5922;53.734;10.258;2023-06-10T13:27:08;5.93;;;3.10;;
11731;SDS011;5922;53.734;10.258;2023-06-10T13:29:36;10.80;;;4.73;;
11731;SDS011;5922;53.734;10.258;2023-06-10T13:32:03;9.37;;;3.63;;
11731;SDS011;5922;53.734;10.258;2023-06-10T13:34:30;7.07;;;3.20;;
11731;SDS011;5922;53.734;10.258;2023-06-10T13:36:59;7.73;;;3.40;;
11731;SDS011;5922;53.734;10.258;2023-06-10T13:39:29;7.87;;;3.77;;
11731;SDS011;5922;53.734;10.258;2023-06-10T13:41:56;8.57;;;3.10;;
11731;SDS011;5922;53.734;10.258;2023-06-10T13:44:23;11.50;;;3.90;;
11731;SDS011;5922;53.734;10.258;2023-06-10T13:46:50;10.77;;;3.70;;
11731;SDS011;5922;53.734;10.258;2023-06-10T13:49:18;7.37;;;3.37;;
11731;SDS011;5922;53.734;10.258;2023-06-10T13:51:45;11.17;;;3.53;;
11731;SDS011;5922;53.734;10.258;2023-06-10T13:54:14;5.87;;;3.40;;
11731;SDS011;5922;53.734;10.258;2023-06-10T13:56:42;6.90;;;3.83;;
11731;SDS011;5922;53.734;10.258;2023-06-10T13:59:09;8.67;;;3.27;;
11731;SDS011;5922;53.734;10.258;2023-06-10T14:01:36;11.93;;;3.43;;
11731;SDS011;5922;53.734;10.258;2023-06-10T14:04:04;6.57;;;3.30;;
11731;SDS011;5922;53.734;10.258;2023-06-10T14:06:31;9.30;;;3.33;;
11731;SDS011;5922;53.734;10.258;2023-06-10T14:08:58;14.07;;;3.80;;
11731;SDS011;5922;53.734;10.258;2023-06-10T14:11:27;9.60;;;3.70;;
11731;SDS011;5922;53.734;10.258;2023-06-10T14:13:55;12.10;;;3.87;;
11731;SDS011;5922;53.734;10.258;2023-06-10T14:16:22;6.33;;;3.43;;
11731;SDS011;5922;53.734;10.258;2023-06-10T14:18:50;10.00;;;3.97;;
11731;SDS011;5922;53.734;10.258;2023-06-10T14:21:17;7.77;;;3.53;;
11731;SDS011;5922;53.734;10.258;2023-06-10T14:23:44;7.00;;;3.60;;
11731;SDS011;5922;53.734;10.258;2023-06-10T14:26:14;12.17;;;3.50;;
11731;SDS011;5922;53.734;10.258;2023-06-10T14:28:42;8.80;;;3.80;;
11731;SDS011;5922;53.734;10.258;2023-06-10T14:31:10;10.20;;;3.67;;
11731;SDS011;5922;53.734;10.258;2023-06-10T14:33:37;6.57;;;3.30;;
11731;SDS011;5922;53.734;10.258;2023-06-10T14:36:07;11.27;;;3.80;;
11731;SDS011;5922;53.734;10.258;2023-06-10T14:38:34;12.13;;;3.40;;
11731;SDS011;5922;53.734;10.258;2023-06-10T14:41:02;8.83;;;3.30;;
11731;SDS011;5922;53.734;10.258;2023-06-10T14:43:29;6.03;;;3.10;;
11731;SDS011;5922;53.734;10.258;2023-06-10T14:45:57;7.47;;;3.10;;
11731;SDS011;5922;53.734;10.258;2023-06-10T14:48:25;9.57;;;3.50;;
11731;SDS011;5922;53.734;10.258;2023-06-10T14:50:52;12.43;;;3.30;;
11731;SDS011;5922;53.734;10.258;2023-06-10T14:53:20;11.10;;;3.23;;
11731;SDS011;5922;53.734;10.258;2023-06-10T14:55:47;7.50;;;3.00;;
11731;SDS011;5922;53.734;10.258;2023-06-10T14:58:14;6.40;;;3.40;;
11731;SDS011;5922;53.734;10.258;2023-06-10T15:00:42;5.93;;;3.47;;
11731;SDS011;5922;53.734;10.258;2023-06-10T15:03:11;9.37;;;3.60;;
11731;SDS011;5922;53.734;10.258;2023-06-10T15:05:38;12.57;;;3.40;;
11731;SDS011;5922;53.734;10.258;2023-06-10T15:08:05;6.83;;;3.07;;
11731;SDS011;5922;53.734;10.258;2023-06-10T15:10:32;7.83;;;3.20;;
11731;SDS011;5922;53.734;10.258;2023-06-10T15:13:00;8.20;;;3.27;;
11731;SDS011;5922;53.734;10.258;2023-06-10T15:15:27;9.27;;;2.97;;
11731;SDS011;5922;53.734;10.258;2023-06-10T15:17:54;9.07;;;3.10;;
11731;SDS011;5922;53.734;10.258;2023-06-10T15:20:23;8.50;;;3.27;;
11731;SDS011;5922;53.734;10.258;2023-06-10T15:22:51;9.60;;;3.30;;
11731;SDS011;5922;53.734;10.258;2023-06-10T15:25:18;9.00;;;3.40;;
11731;SDS011;5922;53.734;10.258;2023-06-10T15:27:46;8.70;;;2.87;;
11731;SDS011;5922;53.734;10.258;2023-06-10T15:30:13;8.57;;;3.23;;
11731;SDS011;5922;53.734;10.258;2023-06-10T15:32:40;5.70;;;3.20;;
11731;SDS011;5922;53.734;10.258;2023-06-10T15:35:08;10.70;;;3.20;;
11731;SDS011;5922;53.734;10.258;2023-06-10T15:37:37;7.50;;;3.37;;
11731;SDS011;5922;53.734;10.258;2023-06-10T15:40:05;8.90;;;3.10;;
11731;SDS011;5922;53.734;10.258;2023-06-10T15:42:32;6.67;;;3.30;;
11731;SDS011;5922;53.734;10.258;2023-06-10T15:45:00;9.70;;;3.23;;
11731;SDS011;5922;53.734;10.258;2023-06-10T15:47:27;11.53;;;3.43;;
11731;SDS011;5922;53.734;10.258;2023-06-10T15:49:54;7.03;;;3.10;;
11731;SDS011;5922;53.734;10.258;2023-06-10T15:52:21;9.83;;;3.37;;
11731;SDS011;5922;53.734;10.258;2023-06-10T15:54:50;12.53;;;3.47;;
11731;SDS011;5922;53.734;10.258;2023-06-10T15:57:18;6.27;;;3.20;;
11731;SDS011;5922;53.734;10.258;2023-06-10T15:59:45;9.40;;;3.20;;
11731;SDS011;5922;53.734;10.258;2023-06-10T16:02:12;14.20;;;3.70;;
11731;SDS011;5922;53.734;10.258;2023-06-10T16:04:39;8.00;;;3.13;;
11731;SDS011;5922;53.734;10.258;2023-06-10T16:07:07;12.10;;;3.70;;
11731;SDS011;5922;53.734;10.258;2023-06-10T16:09:34;12.27;;;3.47;;
11731;SDS011;5922;53.734;10.258;2023-06-10T16:12:03;6.93;;;3.23;;